sensor_id;sensor_type;location;lat;lon;timestamp;pressure;altitude;pressure_sealevel;temperature;humidity
32081;BME280;18593;51.426;7.030;2023-04-25T00:00:34;99933.47;;;8.84;62.88
32081;BME280;18593;51.426;7.030;2023-04-25T00:03:03;99927.75;;;8.81;62.80
32081;BME280;18593;51.426;7.030;2023-04-25T00:05:31;99925.69;;;8.83;63.15
32081;BME280;18593;51.426;7.030;2023-04-25T00:07:58;99933.88;;;8.81;63.15
32081;BME280;18593;51.426;7.030;2023-04-25T00:10:25;99929.81;;;8.79;63.12
32081;BME280;18593;51.426;7.030;2023-04-25T00:12:53;99938.38;;;8.81;63.51
32081;BME280;18593;51.426;7.030;2023-04-25T00:15:20;99933.66;;;8.83;63.42
32081;BME280;18593;51.426;7.030;2023-04-25T00:17:47;99934.88;;;8.87;63.45
32081;BME280;18593;51.426;7.030;2023-04-25T00:20:16;99935.50;;;8.89;63.46
32081;BME280;18593;51.426;7.030;2023-04-25T00:22:43;99929.72;;;8.92;63.59
32081;BME280;18593;51.426;7.030;2023-04-25T00:25:10;99928.91;;;8.91;63.58
32081;BME280;18593;51.426;7.030;2023-04-25T00:27:38;99935.66;;;8.94;63.55
32081;BME280;18593;51.426;7.030;2023-04-25T00:30:09;99931.75;;;8.96;63.78
32081;BME280;18593;51.426;7.030;2023-04-25T00:32:36;99937.88;;;8.97;63.91
32081;BME280;18593;51.426;7.030;2023-04-25T00:35:04;99934.22;;;8.98;63.56
32081;BME280;18593;51.426;7.030;2023-04-25T00:37:33;99943.19;;;8.97;63.96
32081;BME280;18593;51.426;7.030;2023-04-25T00:40:00;99931.56;;;8.98;63.81
32081;BME280;18593;51.426;7.030;2023-04-25T00:42:29;99933.75;;;9.01;63.71
32081;BME280;18593;51.426;7.030;2023-04-25T00:44:56;99935.38;;;9.02;63.80
32081;BME280;18593;51.426;7.030;2023-04-25T00:47:24;99937.03;;;9.03;63.98
32081;BME280;18593;51.426;7.030;2023-04-25T00:49:51;99937.84;;;9.03;64.01
32081;BME280;18593;51.426;7.030;2023-04-25T00:52:20;99935.19;;;9.03;63.91
32081;BME280;18593;51.426;7.030;2023-04-25T00:54:48;99931.50;;;9.05;63.87
32081;BME280;18593;51.426;7.030;2023-04-25T00:57:16;99923.34;;;8.99;63.93
32081;BME280;18593;51.426;7.030;2023-04-25T00:59:45;99934.81;;;9.00;63.90
32081;BME280;18593;51.426;7.030;2023-04-25T01:02:13;99935.38;;;9.02;64.16
32081;BME280;18593;51.426;7.030;2023-04-25T01:04:41;99935.63;;;9.00;64.03
32081;BME280;18593;51.426;7.030;2023-04-25T01:07:09;99937.22;;;9.01;64.05
32081;BME280;18593;51.426;7.030;2023-04-25T01:09:36;99933.53;;;9.02;64.11
32081;BME280;18593;51.426;7.030;2023-04-25T01:12:06;99938.66;;;9.04;64.18
32081;BME280;18593;51.426;7.030;2023-04-25T01:14:33;99938.84;;;9.02;64.12
32081;BME280;18593;51.426;7.030;2023-04-25T01:17:01;99937.03;;;9.03;64.02
32081;BME280;18593;51.426;7.030;2023-04-25T01:19:29;99941.75;;;9.01;64.04
32081;BME280;18593;51.426;7.030;2023-04-25T01:21:58;99940.13;;;9.00;64.19
32081;BME280;18593;51.426;7.030;2023-04-25T01:24:26;99936.66;;;8.93;64.33
32081;BME280;18593;51.426;7.030;2023-04-25T01:26:55;99936.66;;;8.93;64.35
32081;BME280;18593;51.426;7.030;2023-04-25T01:29:24;99938.91;;;8.96;64.35
32081;BME280;18593;51.426;7.030;2023-04-25T01:31:53;99934.22;;;8.98;64.29
32081;BME280;18593;51.426;7.030;2023-04-25T01:34:20;99946.66;;;8.97;64.46
32081;BME280;18593;51.426;7.030;2023-04-25T01:36:49;99942.81;;;8.93;64.21
32081;BME280;18593;51.426;7.030;2023-04-25T01:39:19;99944.88;;;8.91;64.66
32081;BME280;18593;51.426;7.030;2023-04-25T01:41:47;99945.25;;;8.95;64.83
32081;BME280;18593;51.426;7.030;2023-04-25T01:44:15;99953.84;;;8.97;64.44
32081;BME280;18593;51.426;7.030;2023-04-25T01:46:42;99955.91;;;8.95;64.49
32081;BME280;18593;51.426;7.030;2023-04-25T01:49:10;99950.81;;;8.93;64.55
32081;BME280;18593;51.426;7.030;2023-04-25T01:51:39;99962.03;;;8.95;64.63
32081;BME280;18593;51.426;7.030;2023-04-25T01:54:07;99953.84;;;8.97;64.70
32081;BME280;18593;51.426;7.030;2023-04-25T01:56:37;99959.78;;;8.99;64.85
32081;BME280;18593;51.426;7.030;2023-04-25T01:59:06;99960.59;;;8.99;64.53
32081;BME280;18593;51.426;7.030;2023-04-25T02:01:43;99975.34;;;8.95;64.70
32081;BME280;18593;51.426;7.030;2023-04-25T02:04:24;99968.97;;;8.96;64.55
32081;BME280;18593;51.426;7.030;2023-04-25T02:06:51;99970.59;;;8.97;64.79
32081;BME280;18593;51.426;7.030;2023-04-25T02:09:18;99975.34;;;8.95;65.00
32081;BME280;18593;51.426;7.030;2023-04-25T02:11:53;99974.28;;;8.96;64.93
32081;BME280;18593;51.426;7.030;2023-04-25T02:14:39;99979.22;;;8.93;64.67
32081;BME280;18593;51.426;7.030;2023-04-25T02:17:22;99978.03;;;8.89;65.01
32081;BME280;18593;51.426;7.030;2023-04-25T02:19:50;99988.22;;;8.92;64.94
32081;BME280;18593;51.426;7.030;2023-04-25T02:22:17;99981.69;;;8.94;64.79
32081;BME280;18593;51.426;7.030;2023-04-25T02:24:45;99983.31;;;8.95;64.96
32081;BME280;18593;51.426;7.030;2023-04-25T02:27:15;99976.97;;;8.96;64.93
32081;BME280;18593;51.426;7.030;2023-04-25T02:29:42;99977.78;;;8.97;64.87
32081;BME280;18593;51.426;7.030;2023-04-25T02:32:10;99980.25;;;8.98;64.94
32081;BME280;18593;51.426;7.030;2023-04-25T02:34:38;99973.06;;;8.99;64.86
32081;BME280;18593;51.426;7.030;2023-04-25T02:37:05;99981.25;;;8.97;64.98
32081;BME280;18593;51.426;7.030;2023-04-25T02:39:32;99991.06;;;8.97;64.81
32081;BME280;18593;51.426;7.030;2023-04-25T02:41:59;99992.72;;;8.98;65.04
32081;BME280;18593;51.426;7.030;2023-04-25T02:44:30;99995.56;;;8.96;65.28
32081;BME280;18593;51.426;7.030;2023-04-25T02:46:58;99994.34;;;8.99;65.32
32081;BME280;18593;51.426;7.030;2023-04-25T02:49:25;99983.72;;;8.99;65.36
32081;BME280;18593;51.426;7.030;2023-04-25T02:51:52;99980.81;;;9.00;65.16
32081;BME280;18593;51.426;7.030;2023-04-25T02:54:19;99978.16;;;9.00;65.29
32081;BME280;18593;51.426;7.030;2023-04-25T02:56:48;99981.63;;;9.01;65.32
32081;BME280;18593;51.426;7.030;2023-04-25T02:59:22;99990.66;;;9.00;65.19
32081;BME280;18593;51.426;7.030;2023-04-25T03:01:51;99990.66;;;9.00;65.48
32081;BME280;18593;51.426;7.030;2023-04-25T03:04:18;99985.34;;;9.00;65.52
32081;BME280;18593;51.426;7.030;2023-04-25T03:06:47;99993.53;;;8.98;65.82
32081;BME280;18593;51.426;7.030;2023-04-25T03:09:14;99997.19;;;8.97;65.96
32081;BME280;18593;51.426;7.030;2023-04-25T03:11:41;100003.56;;;8.96;65.82
32081;BME280;18593;51.426;7.030;2023-04-25T03:14:09;99984.94;;;8.96;65.99
32081;BME280;18593;51.426;7.030;2023-04-25T03:16:36;99990.25;;;8.96;66.06
32081;BME280;18593;51.426;7.030;2023-04-25T03:19:05;99996.38;;;8.97;66.11
32081;BME280;18593;51.426;7.030;2023-04-25T03:21:34;100009.50;;;8.98;65.93
32081;BME280;18593;51.426;7.030;2023-04-25T03:24:03;99993.53;;;8.98;66.21
32081;BME280;18593;51.426;7.030;2023-04-25T03:26:31;100004.81;;;8.94;66.17
32081;BME280;18593;51.426;7.030;2023-04-25T03:28:59;99995.41;;;8.91;66.27
32081;BME280;18593;51.426;7.030;2023-04-25T03:31:27;100003.38;;;8.91;66.33
32081;BME280;18593;51.426;7.030;2023-04-25T03:33:54;100002.34;;;8.92;66.39
32081;BME280;18593;51.426;7.030;2023-04-25T03:36:24;100001.94;;;8.95;66.57
32081;BME280;18593;51.426;7.030;2023-04-25T03:38:52;100004.38;;;8.97;66.46
32081;BME280;18593;51.426;7.030;2023-04-25T03:41:21;100011.53;;;8.96;66.53
32081;BME280;18593;51.426;7.030;2023-04-25T03:43:55;100009.69;;;8.97;66.43
32081;BME280;18593;51.426;7.030;2023-04-25T03:46:22;100011.34;;;8.98;66.29
32081;BME280;18593;51.426;7.030;2023-04-25T03:48:49;100004.38;;;8.97;65.97
32081;BME280;18593;51.426;7.030;2023-04-25T03:51:25;100008.69;;;8.98;66.20
32081;BME280;18593;51.426;7.030;2023-04-25T03:53:53;100005.19;;;8.97;66.12
32081;BME280;18593;51.426;7.030;2023-04-25T03:56:32;100010.50;;;8.97;66.01
32081;BME280;18593;51.426;7.030;2023-04-25T03:59:06;100018.47;;;8.97;66.12
32081;BME280;18593;51.426;7.030;2023-04-25T04:01:34;100012.16;;;8.98;66.28
32081;BME280;18593;51.426;7.030;2023-04-25T04:04:01;100018.06;;;9.00;66.30
32081;BME280;18593;51.426;7.030;2023-04-25T04:06:31;100015.41;;;9.00;66.06
32081;BME280;18593;51.426;7.030;2023-04-25T04:09:08;100015.63;;;8.99;66.07
32081;BME280;18593;51.426;7.030;2023-04-25T04:11:38;100022.78;;;8.98;65.96
32081;BME280;18593;51.426;7.030;2023-04-25T04:14:06;100033.22;;;9.00;66.07
32081;BME280;18593;51.426;7.030;2023-04-25T04:16:36;100026.25;;;8.99;65.95
32081;BME280;18593;51.426;7.030;2023-04-25T04:19:04;100030.97;;;8.97;65.83
32081;BME280;18593;51.426;7.030;2023-04-25T04:21:33;100024.25;;;8.94;66.08
32081;BME280;18593;51.426;7.030;2023-04-25T04:24:01;100032.22;;;8.94;66.13
32081;BME280;18593;51.426;7.030;2023-04-25T04:26:35;100035.69;;;8.95;66.12
32081;BME280;18593;51.426;7.030;2023-04-25T04:29:11;100033.66;;;8.90;66.13
32081;BME280;18593;51.426;7.030;2023-04-25T04:31:56;100048.00;;;8.89;66.32
32081;BME280;18593;51.426;7.030;2023-04-25T04:34:24;100048.00;;;8.89;66.37
32081;BME280;18593;51.426;7.030;2023-04-25T04:36:53;100050.44;;;8.91;66.43
32081;BME280;18593;51.426;7.030;2023-04-25T04:39:21;100050.44;;;8.91;66.51
32081;BME280;18593;51.426;7.030;2023-04-25T04:42:00;100052.06;;;8.92;66.39
32081;BME280;18593;51.426;7.030;2023-04-25T04:44:52;100053.09;;;8.91;66.02
32081;BME280;18593;51.426;7.030;2023-04-25T04:47:42;100053.91;;;8.91;65.72
32081;BME280;18593;51.426;7.030;2023-04-25T04:50:31;100060.25;;;8.90;65.82
32081;BME280;18593;51.426;7.030;2023-04-25T04:53:15;100052.50;;;8.89;65.58
32081;BME280;18593;51.426;7.030;2023-04-25T04:55:56;100053.72;;;8.86;65.58
32081;BME280;18593;51.426;7.030;2023-04-25T04:58:47;100065.59;;;8.84;65.35
32081;BME280;18593;51.426;7.030;2023-04-25T05:01:39;100067.03;;;8.80;65.29
32081;BME280;18593;51.426;7.030;2023-04-25T05:04:20;100067.22;;;8.78;65.45
32081;BME280;18593;51.426;7.030;2023-04-25T05:06:47;100081.38;;;8.79;65.51
32081;BME280;18593;51.426;7.030;2023-04-25T05:09:28;100082.59;;;8.76;65.52
32081;BME280;18593;51.426;7.030;2023-04-25T05:12:21;100075.44;;;8.76;65.48
32081;BME280;18593;51.426;7.030;2023-04-25T05:15:15;100078.91;;;8.77;65.67
32081;BME280;18593;51.426;7.030;2023-04-25T05:18:10;100082.00;;;8.74;65.36
32081;BME280;18593;51.426;7.030;2023-04-25T05:20:56;100082.81;;;8.74;65.62
32081;BME280;18593;51.426;7.030;2023-04-25T05:23:48;100094.03;;;8.76;65.89
32081;BME280;18593;51.426;7.030;2023-04-25T05:26:43;100098.13;;;8.72;65.74
32081;BME280;18593;51.426;7.030;2023-04-25T05:29:43;100112.06;;;8.74;65.58
32081;BME280;18593;51.426;7.030;2023-04-25T05:32:20;100106.75;;;8.74;65.38
32081;BME280;18593;51.426;7.030;2023-04-25T05:34:48;100111.03;;;8.75;65.38
32081;BME280;18593;51.426;7.030;2023-04-25T05:37:41;100116.13;;;8.77;65.53
32081;BME280;18593;51.426;7.030;2023-04-25T05:40:11;100113.88;;;8.81;65.76
32081;BME280;18593;51.426;7.030;2023-04-25T05:42:46;100112.84;;;8.82;65.44
32081;BME280;18593;51.426;7.030;2023-04-25T05:45:48;100117.56;;;8.80;65.32
32081;BME280;18593;51.426;7.030;2023-04-25T05:48:31;100122.88;;;8.80;65.37
32081;BME280;18593;51.426;7.030;2023-04-25T05:51:09;100124.50;;;8.81;65.46
32081;BME280;18593;51.426;7.030;2023-04-25T05:54:12;100131.88;;;8.79;65.43
32081;BME280;18593;51.426;7.030;2023-04-25T05:56:39;100140.06;;;8.77;65.39
32081;BME280;18593;51.426;7.030;2023-04-25T05:59:08;100141.28;;;8.81;65.50
32081;BME280;18593;51.426;7.030;2023-04-25T06:01:35;100139.44;;;8.82;65.72
32081;BME280;18593;51.426;7.030;2023-04-25T06:04:03;100137.41;;;8.84;65.71
32081;BME280;18593;51.426;7.030;2023-04-25T06:06:32;100135.13;;;8.87;65.53
32081;BME280;18593;51.426;7.030;2023-04-25T06:08:59;100140.25;;;8.89;65.60
32081;BME280;18593;51.426;7.030;2023-04-25T06:11:26;100154.16;;;8.91;65.54
32081;BME280;18593;51.426;7.030;2023-04-25T06:13:54;100150.88;;;8.95;65.58
32081;BME280;18593;51.426;7.030;2023-04-25T06:16:22;100145.31;;;8.97;65.20
32081;BME280;18593;51.426;7.030;2023-04-25T06:18:51;100145.94;;;8.99;65.00
32081;BME280;18593;51.426;7.030;2023-04-25T06:21:18;100154.53;;;9.01;65.05
32081;BME280;18593;51.426;7.030;2023-04-25T06:23:47;100155.97;;;9.03;65.03
32081;BME280;18593;51.426;7.030;2023-04-25T06:26:19;100155.16;;;9.03;64.00
32081;BME280;18593;51.426;7.030;2023-04-25T06:28:47;100156.38;;;9.00;64.24
32081;BME280;18593;51.426;7.030;2023-04-25T06:31:15;100150.81;;;9.15;64.52
32081;BME280;18593;51.426;7.030;2023-04-25T06:33:44;100161.41;;;9.28;63.88
32081;BME280;18593;51.426;7.030;2023-04-25T06:36:11;100155.41;;;9.40;63.43
32081;BME280;18593;51.426;7.030;2023-04-25T06:38:40;100153.94;;;9.50;63.24
32081;BME280;18593;51.426;7.030;2023-04-25T06:41:07;100153.66;;;9.65;62.97
32081;BME280;18593;51.426;7.030;2023-04-25T06:43:36;100158.91;;;9.78;62.70
32081;BME280;18593;51.426;7.030;2023-04-25T06:46:23;100155.53;;;9.96;62.67
32081;BME280;18593;51.426;7.030;2023-04-25T06:48:52;100154.84;;;10.07;62.60
32081;BME280;18593;51.426;7.030;2023-04-25T06:51:19;100158.75;;;10.05;61.91
32081;BME280;18593;51.426;7.030;2023-04-25T06:53:48;100173.91;;;10.04;61.24
32081;BME280;18593;51.426;7.030;2023-04-25T06:56:25;100174.16;;;10.03;60.85
32081;BME280;18593;51.426;7.030;2023-04-25T06:59:00;100178.72;;;9.96;60.74
32081;BME280;18593;51.426;7.030;2023-04-25T07:01:33;100178.53;;;9.91;60.19
32081;BME280;18593;51.426;7.030;2023-04-25T07:04:05;100184.28;;;9.88;60.54
32081;BME280;18593;51.426;7.030;2023-04-25T07:06:35;100192.91;;;9.83;59.99
32081;BME280;18593;51.426;7.030;2023-04-25T07:09:04;100186.78;;;9.76;59.96
32081;BME280;18593;51.426;7.030;2023-04-25T07:11:32;100185.38;;;9.73;59.44
32081;BME280;18593;51.426;7.030;2023-04-25T07:13:59;100188.44;;;9.70;59.59
32081;BME280;18593;51.426;7.030;2023-04-25T07:16:26;100191.34;;;9.69;60.00
32081;BME280;18593;51.426;7.030;2023-04-25T07:18:53;100190.13;;;9.65;59.71
32081;BME280;18593;51.426;7.030;2023-04-25T07:21:22;100193.81;;;9.64;59.79
32081;BME280;18593;51.426;7.030;2023-04-25T07:23:51;100195.66;;;9.63;59.71
32081;BME280;18593;51.426;7.030;2023-04-25T07:26:23;100208.16;;;9.63;59.70
32081;BME280;18593;51.426;7.030;2023-04-25T07:29:16;100200.78;;;9.65;60.48
32081;BME280;18593;51.426;7.030;2023-04-25T07:31:43;100201.81;;;9.64;59.71
32081;BME280;18593;51.426;7.030;2023-04-25T07:34:11;100203.66;;;9.63;59.55
32081;BME280;18593;51.426;7.030;2023-04-25T07:36:40;100208.75;;;9.65;59.71
32081;BME280;18593;51.426;7.030;2023-04-25T07:39:07;100206.31;;;9.63;59.28
32081;BME280;18593;51.426;7.030;2023-04-25T07:41:36;100200.78;;;9.65;59.58
32081;BME280;18593;51.426;7.030;2023-04-25T07:44:03;100200.78;;;9.65;58.12
32081;BME280;18593;51.426;7.030;2023-04-25T07:46:32;100214.72;;;9.67;58.31
32081;BME280;18593;51.426;7.030;2023-04-25T07:48:59;100217.97;;;9.69;58.31
32081;BME280;18593;51.426;7.030;2023-04-25T07:51:27;100217.94;;;9.75;58.52
32081;BME280;18593;51.426;7.030;2023-04-25T07:53:59;100221.75;;;9.93;58.09
32081;BME280;18593;51.426;7.030;2023-04-25T07:56:27;100218.41;;;10.04;58.15
32081;BME280;18593;51.426;7.030;2023-04-25T07:58:54;100233.06;;;10.20;59.01
32081;BME280;18593;51.426;7.030;2023-04-25T08:01:23;100237.34;;;10.27;57.21
32081;BME280;18593;51.426;7.030;2023-04-25T08:03:57;100236.50;;;10.34;56.00
32081;BME280;18593;51.426;7.030;2023-04-25T08:06:47;100244.72;;;10.32;55.56
32081;BME280;18593;51.426;7.030;2023-04-25T08:09:22;100241.81;;;10.34;55.02
32081;BME280;18593;51.426;7.030;2023-04-25T08:11:49;100245.28;;;10.41;55.49
32081;BME280;18593;51.426;7.030;2023-04-25T08:14:20;100251.44;;;10.41;54.20
32081;BME280;18593;51.426;7.030;2023-04-25T08:16:48;100250.38;;;10.42;55.15
32081;BME280;18593;51.426;7.030;2023-04-25T08:19:16;100257.16;;;10.45;55.16
32081;BME280;18593;51.426;7.030;2023-04-25T08:21:44;100266.31;;;10.49;55.19
32081;BME280;18593;51.426;7.030;2023-04-25T08:24:16;100263.25;;;10.52;54.84
32081;BME280;18593;51.426;7.030;2023-04-25T08:26:45;100263.81;;;10.54;55.11
32081;BME280;18593;51.426;7.030;2023-04-25T08:29:15;100257.19;;;10.63;54.15
32081;BME280;18593;51.426;7.030;2023-04-25T08:31:43;100258.00;;;10.70;54.12
32081;BME280;18593;51.426;7.030;2023-04-25T08:34:10;100261.03;;;10.74;54.23
32081;BME280;18593;51.426;7.030;2023-04-25T08:36:42;100258.16;;;10.75;53.55
32081;BME280;18593;51.426;7.030;2023-04-25T08:39:33;100256.28;;;10.76;52.69
32081;BME280;18593;51.426;7.030;2023-04-25T08:42:41;100274.22;;;10.69;51.94
32081;BME280;18593;51.426;7.030;2023-04-25T08:45:10;100282.25;;;10.62;52.34
32081;BME280;18593;51.426;7.030;2023-04-25T08:47:39;100293.38;;;10.59;52.68
32081;BME280;18593;51.426;7.030;2023-04-25T08:50:08;100286.81;;;10.55;53.23
32081;BME280;18593;51.426;7.030;2023-04-25T08:52:39;100297.09;;;10.51;52.54
32081;BME280;18593;51.426;7.030;2023-04-25T08:55:12;100288.69;;;10.48;53.52
32081;BME280;18593;51.426;7.030;2023-04-25T08:57:43;100292.19;;;10.48;53.34
32081;BME280;18593;51.426;7.030;2023-04-25T09:00:12;100299.97;;;10.50;53.50
32081;BME280;18593;51.426;7.030;2023-04-25T09:02:43;100302.03;;;10.48;52.93
32081;BME280;18593;51.426;7.030;2023-04-25T09:05:13;100304.06;;;10.52;53.87
32081;BME280;18593;51.426;7.030;2023-04-25T09:07:41;100313.03;;;10.58;54.29
32081;BME280;18593;51.426;7.030;2023-04-25T09:10:09;100309.94;;;10.61;53.35
32081;BME280;18593;51.426;7.030;2023-04-25T09:12:38;100315.28;;;10.61;52.37
32081;BME280;18593;51.426;7.030;2023-04-25T09:15:12;100314.25;;;10.62;51.80
32081;BME280;18593;51.426;7.030;2023-04-25T09:17:56;100312.56;;;10.68;51.82
32081;BME280;18593;51.426;7.030;2023-04-25T09:20:26;100322.00;;;10.70;51.50
32081;BME280;18593;51.426;7.030;2023-04-25T09:23:04;100317.88;;;10.74;51.69
32081;BME280;18593;51.426;7.030;2023-04-25T09:25:35;100329.19;;;10.70;51.28
32081;BME280;18593;51.426;7.030;2023-04-25T09:28:06;100320.72;;;10.73;51.24
32081;BME280;18593;51.426;7.030;2023-04-25T09:30:36;100322.75;;;10.77;50.71
32081;BME280;18593;51.426;7.030;2023-04-25T09:33:28;100328.91;;;10.78;50.38
32081;BME280;18593;51.426;7.030;2023-04-25T09:36:03;100332.41;;;10.78;49.80
32081;BME280;18593;51.426;7.030;2023-04-25T09:38:46;100338.56;;;10.79;48.45
32081;BME280;18593;51.426;7.030;2023-04-25T09:41:41;100343.25;;;10.83;49.27
32081;BME280;18593;51.426;7.030;2023-04-25T09:44:08;100350.38;;;10.90;49.60
32081;BME280;18593;51.426;7.030;2023-04-25T09:46:42;100344.19;;;10.96;49.40
32081;BME280;18593;51.426;7.030;2023-04-25T09:49:20;100342.50;;;11.01;48.92
32081;BME280;18593;51.426;7.030;2023-04-25T09:51:59;100343.13;;;11.03;47.72
32081;BME280;18593;51.426;7.030;2023-04-25T09:54:36;100347.19;;;11.06;48.40
32081;BME280;18593;51.426;7.030;2023-04-25T09:57:12;100349.63;;;11.07;49.22
32081;BME280;18593;51.426;7.030;2023-04-25T09:59:44;100356.22;;;11.05;47.23
32081;BME280;18593;51.426;7.030;2023-04-25T10:02:15;100357.69;;;11.01;46.71
32081;BME280;18593;51.426;7.030;2023-04-25T10:04:47;100358.34;;;10.96;46.18
32081;BME280;18593;51.426;7.030;2023-04-25T10:07:31;100355.28;;;10.93;46.84
32081;BME280;18593;51.426;7.030;2023-04-25T10:10:01;100354.84;;;10.96;46.78
32081;BME280;18593;51.426;7.030;2023-04-25T10:12:29;100360.13;;;11.02;45.90
32081;BME280;18593;51.426;7.030;2023-04-25T10:14:58;100362.31;;;11.12;46.64
32081;BME280;18593;51.426;7.030;2023-04-25T10:17:27;100350.19;;;11.16;46.51
32081;BME280;18593;51.426;7.030;2023-04-25T10:19:55;100356.72;;;11.20;46.63
32081;BME280;18593;51.426;7.030;2023-04-25T10:22:29;100359.38;;;11.20;46.77
32081;BME280;18593;51.426;7.030;2023-04-25T10:24:58;100355.91;;;11.20;47.45
32081;BME280;18593;51.426;7.030;2023-04-25T10:27:27;100374.19;;;11.16;46.34
32081;BME280;18593;51.426;7.030;2023-04-25T10:30:00;100378.72;;;11.16;47.33
32081;BME280;18593;51.426;7.030;2023-04-25T10:32:32;100379.13;;;11.19;48.35
32081;BME280;18593;51.426;7.030;2023-04-25T10:35:11;100375.19;;;11.22;47.38
32081;BME280;18593;51.426;7.030;2023-04-25T10:37:57;100373.72;;;11.26;47.59
32081;BME280;18593;51.426;7.030;2023-04-25T10:40:24;100370.22;;;11.25;45.68
32081;BME280;18593;51.426;7.030;2023-04-25T10:42:52;100379.50;;;11.23;45.57
32081;BME280;18593;51.426;7.030;2023-04-25T10:45:20;100378.66;;;11.22;45.75
32081;BME280;18593;51.426;7.030;2023-04-25T10:47:49;100375.81;;;11.17;45.81
32081;BME280;18593;51.426;7.030;2023-04-25T10:50:16;100376.88;;;11.16;46.17
32081;BME280;18593;51.426;7.030;2023-04-25T10:52:44;100382.81;;;11.18;47.44
32081;BME280;18593;51.426;7.030;2023-04-25T10:55:11;100388.59;;;11.15;46.81
32081;BME280;18593;51.426;7.030;2023-04-25T10:57:41;100394.34;;;11.12;48.20
32081;BME280;18593;51.426;7.030;2023-04-25T11:00:13;100397.47;;;11.09;48.76
32081;BME280;18593;51.426;7.030;2023-04-25T11:02:44;100399.75;;;11.05;49.69
32081;BME280;18593;51.426;7.030;2023-04-25T11:05:27;100406.34;;;11.03;50.51
32081;BME280;18593;51.426;7.030;2023-04-25T11:07:56;100405.50;;;11.02;51.62
32081;BME280;18593;51.426;7.030;2023-04-25T11:10:26;100413.94;;;10.99;51.58
32081;BME280;18593;51.426;7.030;2023-04-25T11:12:54;100416.81;;;10.98;52.37
32081;BME280;18593;51.426;7.030;2023-04-25T11:15:21;100414.59;;;10.95;52.18
32081;BME280;18593;51.426;7.030;2023-04-25T11:17:50;100414.19;;;10.91;51.54
32081;BME280;18593;51.426;7.030;2023-04-25T11:20:19;100413.63;;;10.82;51.79
32081;BME280;18593;51.426;7.030;2023-04-25T11:22:47;100418.97;;;10.82;51.92
32081;BME280;18593;51.426;7.030;2023-04-25T11:25:16;100417.16;;;10.76;50.45
32081;BME280;18593;51.426;7.030;2023-04-25T11:27:53;100421.28;;;10.72;51.11
32081;BME280;18593;51.426;7.030;2023-04-25T11:30:22;100425.56;;;10.73;51.42
32081;BME280;18593;51.426;7.030;2023-04-25T11:32:50;100429.28;;;10.72;50.89
32081;BME280;18593;51.426;7.030;2023-04-25T11:35:19;100421.09;;;10.74;50.72
32081;BME280;18593;51.426;7.030;2023-04-25T11:37:48;100417.78;;;10.78;51.39
32081;BME280;18593;51.426;7.030;2023-04-25T11:40:16;100426.56;;;10.86;51.61
32081;BME280;18593;51.426;7.030;2023-04-25T11:42:45;100424.28;;;10.89;50.45
32081;BME280;18593;51.426;7.030;2023-04-25T11:45:13;100415.63;;;10.94;49.78
32081;BME280;18593;51.426;7.030;2023-04-25T11:47:42;100419.06;;;11.01;49.62
32081;BME280;18593;51.426;7.030;2023-04-25T11:50:10;100413.56;;;10.96;46.45
32081;BME280;18593;51.426;7.030;2023-04-25T11:52:40;100413.38;;;10.91;46.80
32081;BME280;18593;51.426;7.030;2023-04-25T11:55:10;100417.84;;;10.97;48.27
32081;BME280;18593;51.426;7.030;2023-04-25T11:57:40;100408.16;;;11.02;47.23
32081;BME280;18593;51.426;7.030;2023-04-25T12:00:11;100411.63;;;11.09;48.23
32081;BME280;18593;51.426;7.030;2023-04-25T12:02:41;100402.16;;;11.14;48.84
32081;BME280;18593;51.426;7.030;2023-04-25T12:05:09;100407.28;;;11.15;49.24
32081;BME280;18593;51.426;7.030;2023-04-25T12:07:38;100420.22;;;11.12;49.08
32081;BME280;18593;51.426;7.030;2023-04-25T12:10:09;100412.66;;;11.08;48.26
32081;BME280;18593;51.426;7.030;2023-04-25T12:12:38;100421.72;;;11.01;47.89
32081;BME280;18593;51.426;7.030;2023-04-25T12:15:13;100423.19;;;10.97;48.12
32081;BME280;18593;51.426;7.030;2023-04-25T12:17:44;100435.78;;;10.90;47.92
32081;BME280;18593;51.426;7.030;2023-04-25T12:20:14;100437.03;;;10.80;47.77
32081;BME280;18593;51.426;7.030;2023-04-25T12:22:45;100429.09;;;10.74;47.41
32081;BME280;18593;51.426;7.030;2023-04-25T12:25:12;100427.06;;;10.69;48.31
32081;BME280;18593;51.426;7.030;2023-04-25T12:27:40;100434.44;;;10.67;48.69
32081;BME280;18593;51.426;7.030;2023-04-25T12:30:10;100431.34;;;10.70;49.10
32081;BME280;18593;51.426;7.030;2023-04-25T12:32:38;100434.44;;;10.67;48.98
32081;BME280;18593;51.426;7.030;2023-04-25T12:35:06;100441.63;;;10.67;49.27
32081;BME280;18593;51.426;7.030;2023-04-25T12:37:39;100441.81;;;10.72;49.94
32081;BME280;18593;51.426;7.030;2023-04-25T12:40:09;100444.06;;;10.75;48.49
32081;BME280;18593;51.426;7.030;2023-04-25T12:42:36;100440.94;;;10.78;49.24
32081;BME280;18593;51.426;7.030;2023-04-25T12:45:04;100447.91;;;10.86;49.00
32081;BME280;18593;51.426;7.030;2023-04-25T12:47:32;100439.66;;;10.94;48.80
32081;BME280;18593;51.426;7.030;2023-04-25T12:50:01;100440.41;;;11.01;49.05
32081;BME280;18593;51.426;7.030;2023-04-25T12:52:28;100434.84;;;11.09;45.98
32081;BME280;18593;51.426;7.030;2023-04-25T12:54:55;100436.63;;;11.15;45.93
32081;BME280;18593;51.426;7.030;2023-04-25T12:57:24;100432.66;;;11.24;46.38
32081;BME280;18593;51.426;7.030;2023-04-25T12:59:51;100436.91;;;11.32;45.45
32081;BME280;18593;51.426;7.030;2023-04-25T13:02:19;100426.78;;;11.41;46.92
32081;BME280;18593;51.426;7.030;2023-04-25T13:04:46;100434.53;;;11.49;44.88
32081;BME280;18593;51.426;7.030;2023-04-25T13:07:13;100441.50;;;11.50;46.22
32081;BME280;18593;51.426;7.030;2023-04-25T13:09:41;100433.88;;;11.53;46.68
32081;BME280;18593;51.426;7.030;2023-04-25T13:12:09;100435.50;;;11.54;46.12
32081;BME280;18593;51.426;7.030;2023-04-25T13:14:37;100439.22;;;11.53;45.86
32081;BME280;18593;51.426;7.030;2023-04-25T13:17:04;100447.88;;;11.49;46.18
32081;BME280;18593;51.426;7.030;2023-04-25T13:19:32;100450.41;;;11.44;45.56